createdAt,value
2023-02-09T00:01:21.186Z,44.27
2023-02-09T00:03:48.841Z,43.13
2023-02-09T00:06:17.447Z,44.33
2023-02-09T00:08:44.879Z,48.73
2023-02-09T00:11:14.617Z,49.23
2023-02-09T00:13:43.943Z,46.60
2023-02-09T00:16:11.365Z,48.50
2023-02-09T00:18:38.673Z,48.00
2023-02-09T00:21:07.421Z,46.90
2023-02-09T00:23:37.266Z,44.70
2023-02-09T00:26:07.237Z,45.20
2023-02-09T00:28:34.888Z,44.33
2023-02-09T00:31:06.345Z,42.60
2023-02-09T00:33:33.906Z,42.47
2023-02-09T00:36:01.447Z,40.47
2023-02-09T00:38:28.639Z,39.03
2023-02-09T00:40:55.800Z,40.63
2023-02-09T00:43:23.063Z,40.70
2023-02-09T00:45:50.474Z,40.77
2023-02-09T00:48:17.898Z,40.93
2023-02-09T00:50:45.367Z,40.60
2023-02-09T00:53:12.776Z,40.77
2023-02-09T00:55:39.961Z,40.60
2023-02-09T00:58:07.301Z,40.40
2023-02-09T01:00:34.529Z,38.37
2023-02-09T01:03:01.760Z,42.03
2023-02-09T01:05:29.377Z,40.87
2023-02-09T01:07:56.930Z,42.37
2023-02-09T01:10:24.777Z,41.23
2023-02-09T01:12:52.202Z,41.00
2023-02-09T01:15:19.474Z,42.57
2023-02-09T01:17:46.785Z,42.70
2023-02-09T01:20:14.508Z,43.93
2023-02-09T01:22:41.944Z,43.03
2023-02-09T01:25:09.525Z,42.67
2023-02-09T01:27:36.982Z,43.17
2023-02-09T01:30:04.773Z,41.50
2023-02-09T01:32:32.139Z,41.33
2023-02-09T01:34:59.492Z,39.43
2023-02-09T01:37:26.728Z,35.50
2023-02-09T01:39:53.932Z,35.60
2023-02-09T01:42:22.200Z,32.03
2023-02-09T01:45:18.570Z,32.87
2023-02-09T01:47:48.160Z,32.23
2023-02-09T01:50:15.787Z,32.17
2023-02-09T01:52:43.515Z,33.27
2023-02-09T01:55:13.102Z,32.33
2023-02-09T01:57:42.509Z,32.23
2023-02-09T02:00:12.050Z,31.47
2023-02-09T02:02:40.485Z,31.23
2023-02-09T02:05:09.000Z,31.43
2023-02-09T02:07:39.209Z,32.17
2023-02-09T02:10:06.607Z,33.13
2023-02-09T02:12:34.388Z,34.20
2023-02-09T02:15:01.846Z,36.47
2023-02-09T02:17:47.748Z,37.30
2023-02-09T02:20:21.071Z,39.27
2023-02-09T02:22:51.353Z,36.00
2023-02-09T02:25:18.551Z,34.93
2023-02-09T02:27:48.911Z,34.07
2023-02-09T02:30:29.879Z,33.67
2023-02-09T02:33:19.206Z,32.27
2023-02-09T02:35:52.281Z,32.00
2023-02-09T02:38:28.035Z,33.87
2023-02-09T02:40:55.670Z,32.40
2023-02-09T02:43:25.926Z,33.47
2023-02-09T02:46:09.904Z,31.30
2023-02-09T02:48:40.940Z,32.60
2023-02-09T02:51:26.988Z,32.80
2023-02-09T02:53:56.310Z,31.10
2023-02-09T02:56:43.885Z,32.43
2023-02-09T02:59:13.633Z,31.47
2023-02-09T03:01:43.102Z,34.07
2023-02-09T03:04:11.163Z,33.27
2023-02-09T03:06:38.749Z,31.17
2023-02-09T03:09:05.949Z,32.37
2023-02-09T03:11:37.026Z,31.37
2023-02-09T03:14:21.560Z,31.90
2023-02-09T03:16:49.001Z,32.90
2023-02-09T03:19:35.283Z,31.30
2023-02-09T03:22:12.520Z,30.73
2023-02-09T03:24:49.470Z,30.60
2023-02-09T03:27:19.445Z,31.37
2023-02-09T03:29:48.020Z,31.60
2023-02-09T03:32:16.483Z,32.00
2023-02-09T03:34:44.308Z,31.20
2023-02-09T03:37:11.588Z,31.37
2023-02-09T03:39:38.906Z,32.03
2023-02-09T03:42:06.276Z,31.87
2023-02-09T03:44:33.530Z,33.20
2023-02-09T03:47:07.802Z,32.37
2023-02-09T03:49:39.449Z,33.50
2023-02-09T03:52:08.226Z,32.83
2023-02-09T03:54:35.674Z,34.27
2023-02-09T03:57:03.195Z,34.13
2023-02-09T03:59:30.576Z,33.70
2023-02-09T04:01:59.293Z,33.30
2023-02-09T04:04:26.757Z,33.13
2023-02-09T04:06:54.154Z,35.07
2023-02-09T04:09:21.418Z,34.37
2023-02-09T04:11:48.726Z,34.20
2023-02-09T04:14:16.361Z,34.30
2023-02-09T04:16:43.671Z,34.37
2023-02-09T04:19:11.464Z,33.87
2023-02-09T04:21:39.359Z,36.10
2023-02-09T04:24:07.486Z,33.60
2023-02-09T04:26:35.184Z,34.37
2023-02-09T04:29:02.527Z,34.33
2023-02-09T04:31:29.924Z,34.60
2023-02-09T04:33:57.170Z,37.97
2023-02-09T04:36:24.695Z,35.10
2023-02-09T04:38:51.929Z,36.47
2023-02-09T04:41:19.190Z,35.20
2023-02-09T04:43:46.946Z,35.77
2023-02-09T04:46:14.980Z,35.03
2023-02-09T04:48:42.445Z,35.27
2023-02-09T04:51:09.816Z,34.87
2023-02-09T04:53:37.269Z,34.53
2023-02-09T04:56:04.745Z,33.53
2023-02-09T04:58:50.625Z,35.93
2023-02-09T05:01:22.415Z,32.53
2023-02-09T05:03:50.222Z,34.63
2023-02-09T05:06:17.830Z,35.20
2023-02-09T05:08:45.302Z,34.17
2023-02-09T05:11:12.709Z,33.23
2023-02-09T05:13:46.322Z,34.07
2023-02-09T05:16:15.662Z,32.93
2023-02-09T05:18:43.288Z,33.33
2023-02-09T05:21:10.591Z,35.63
2023-02-09T05:23:37.923Z,33.60
2023-02-09T05:26:05.354Z,36.43
2023-02-09T05:28:32.577Z,38.33
2023-02-09T05:30:59.813Z,36.87
2023-02-09T05:33:27.261Z,37.67
2023-02-09T05:35:57.835Z,35.63
2023-02-09T05:38:25.157Z,39.17
2023-02-09T05:40:52.387Z,34.50
2023-02-09T05:43:19.829Z,37.63
2023-02-09T05:45:47.113Z,36.53
2023-02-09T05:48:14.405Z,35.30
2023-02-09T05:50:41.845Z,34.13
2023-02-09T05:53:09.740Z,38.77
2023-02-09T05:55:37.054Z,39.10
2023-02-09T05:58:04.520Z,39.70
2023-02-09T06:00:31.852Z,38.30
2023-02-09T06:02:59.109Z,39.47
2023-02-09T06:05:26.951Z,39.53
2023-02-09T06:07:54.248Z,37.10
2023-02-09T06:10:21.681Z,37.50
2023-02-09T06:12:49.170Z,41.57
2023-02-09T06:15:16.741Z,42.67
2023-02-09T06:17:43.976Z,44.17
2023-02-09T06:20:11.505Z,46.17
2023-02-09T06:22:38.796Z,41.00
2023-02-09T06:25:06.364Z,40.70
2023-02-09T06:27:33.612Z,41.33
2023-02-09T06:30:00.979Z,42.57
2023-02-09T06:32:28.183Z,42.53
2023-02-09T06:34:55.379Z,39.83
2023-02-09T06:37:22.870Z,39.77
2023-02-09T06:39:50.053Z,38.47
2023-02-09T06:42:17.343Z,40.33
2023-02-09T06:44:44.802Z,39.63
2023-02-09T06:47:12.171Z,40.40
2023-02-09T06:49:39.381Z,41.53
2023-02-09T06:52:06.665Z,42.57
2023-02-09T06:54:34.154Z,41.70
2023-02-09T06:57:01.488Z,42.63
2023-02-09T06:59:28.773Z,42.90
2023-02-09T07:01:56.126Z,45.03
2023-02-09T07:04:23.888Z,46.63
2023-02-09T07:06:51.072Z,46.60
2023-02-09T07:09:18.292Z,44.37
2023-02-09T07:11:45.595Z,44.77
2023-02-09T07:14:12.801Z,44.53
2023-02-09T07:16:40.025Z,43.27
2023-02-09T07:19:07.275Z,41.27
2023-02-09T07:21:34.542Z,40.17
2023-02-09T07:24:02.288Z,40.00
2023-02-09T07:26:29.745Z,40.10
2023-02-09T07:28:56.994Z,43.43
2023-02-09T07:31:24.448Z,40.00
2023-02-09T07:33:52.084Z,38.27
2023-02-09T07:36:19.300Z,39.83
2023-02-09T07:38:46.883Z,40.30
2023-02-09T07:41:15.981Z,41.20
2023-02-09T07:43:43.245Z,40.80
2023-02-09T07:46:10.910Z,41.27
2023-02-09T07:48:38.419Z,41.57
2023-02-09T07:51:06.172Z,38.00
2023-02-09T07:53:34.152Z,36.57
2023-02-09T07:56:01.568Z,38.10
2023-02-09T07:58:28.923Z,37.07
2023-02-09T08:00:56.923Z,37.80
2023-02-09T08:03:25.034Z,38.07
2023-02-09T08:05:57.926Z,36.53
2023-02-09T08:08:25.133Z,36.13
2023-02-09T08:10:52.743Z,37.30
2023-02-09T08:13:20.522Z,38.93
2023-02-09T08:15:49.838Z,36.27
2023-02-09T08:18:19.177Z,36.63
2023-02-09T08:20:47.198Z,35.73
2023-02-09T08:23:18.665Z,37.90
2023-02-09T08:25:48.180Z,37.17
2023-02-09T08:28:16.112Z,35.93
2023-02-09T08:30:43.444Z,35.73
2023-02-09T08:33:10.647Z,36.27
2023-02-09T08:35:37.848Z,35.00
2023-02-09T08:38:05.329Z,33.97
2023-02-09T08:40:32.882Z,35.03
2023-02-09T08:43:00.128Z,35.80
2023-02-09T08:45:27.470Z,31.30
2023-02-09T08:47:54.779Z,33.77
2023-02-09T08:50:22.333Z,33.03
2023-02-09T08:52:49.934Z,29.93
2023-02-09T08:55:17.510Z,29.33
2023-02-09T08:57:44.914Z,30.37
2023-02-09T09:00:12.710Z,29.17
2023-02-09T09:02:39.954Z,26.83
2023-02-09T09:05:07.504Z,25.67
2023-02-09T09:07:34.689Z,25.33
2023-02-09T09:10:02.070Z,24.60
2023-02-09T09:12:30.260Z,23.73
2023-02-09T09:14:57.608Z,23.10
2023-02-09T09:17:24.819Z,21.87
2023-02-09T09:19:56.469Z,23.17
2023-02-09T09:22:24.011Z,23.13
2023-02-09T09:24:55.098Z,22.33
2023-02-09T09:27:22.407Z,23.33
2023-02-09T09:29:49.729Z,21.80
2023-02-09T09:32:17.108Z,22.43
2023-02-09T09:34:44.442Z,22.13
2023-02-09T09:37:11.850Z,21.27
2023-02-09T09:39:39.118Z,20.73
2023-02-09T09:42:06.419Z,22.90
2023-02-09T09:44:45.160Z,22.60
2023-02-09T09:47:17.781Z,23.43
2023-02-09T09:49:45.402Z,22.63
2023-02-09T09:52:29.529Z,22.30
2023-02-09T09:54:57.891Z,22.80
2023-02-09T09:57:26.560Z,21.67
2023-02-09T09:59:55.473Z,21.80
2023-02-09T10:02:25.944Z,21.77
2023-02-09T10:04:53.441Z,21.30
2023-02-09T10:07:23.830Z,19.30
2023-02-09T10:10:00.312Z,20.93
2023-02-09T10:12:27.494Z,20.83
2023-02-09T10:14:54.785Z,20.27
2023-02-09T10:17:22.007Z,20.43
2023-02-09T10:20:02.561Z,21.90
2023-02-09T10:22:29.806Z,21.43
2023-02-09T10:24:59.487Z,22.20
2023-02-09T10:27:31.077Z,22.17
2023-02-09T10:30:16.930Z,22.20
2023-02-09T10:32:44.487Z,23.17
2023-02-09T10:35:26.603Z,19.87
2023-02-09T10:38:01.227Z,19.97
2023-02-09T10:40:30.627Z,19.33
2023-02-09T10:42:59.565Z,19.93
2023-02-09T10:45:43.256Z,20.93
2023-02-09T10:48:14.002Z,21.27
2023-02-09T10:51:00.123Z,19.40
2023-02-09T10:53:30.200Z,16.13
2023-02-09T10:56:17.500Z,17.70
2023-02-09T10:58:53.122Z,18.37
2023-02-09T11:01:23.044Z,19.03
2023-02-09T11:03:58.173Z,17.83
2023-02-09T11:06:25.437Z,18.93
2023-02-09T11:08:59.171Z,17.77
2023-02-09T11:11:33.815Z,17.87
2023-02-09T11:14:01.479Z,18.00
2023-02-09T11:16:46.980Z,15.77
2023-02-09T11:19:33.882Z,18.17
2023-02-09T11:22:01.109Z,18.93
2023-02-09T11:24:47.219Z,17.13
2023-02-09T11:27:29.528Z,17.90
2023-02-09T11:30:19.515Z,18.37
2023-02-09T11:32:55.438Z,18.33
2023-02-09T11:35:41.752Z,25.37
2023-02-09T11:38:13.619Z,22.80
2023-02-09T11:40:43.576Z,18.70
2023-02-09T11:43:20.235Z,18.43
2023-02-09T11:45:54.388Z,17.50
2023-02-09T11:48:27.698Z,17.93
2023-02-09T11:51:02.825Z,16.90
2023-02-09T11:53:48.699Z,15.63
2023-02-09T11:56:18.008Z,16.27
2023-02-09T11:58:58.695Z,15.90
2023-02-09T12:01:38.585Z,14.90
2023-02-09T12:04:05.946Z,14.83
2023-02-09T12:06:38.075Z,14.33
2023-02-09T12:09:05.391Z,14.27
2023-02-09T12:11:36.996Z,13.10
2023-02-09T12:14:28.689Z,13.77
2023-02-09T12:17:01.690Z,14.43
2023-02-09T12:19:29.345Z,14.40
2023-02-09T12:21:56.590Z,13.73
2023-02-09T12:24:39.859Z,14.67
2023-02-09T12:27:23.138Z,14.97
2023-02-09T12:29:50.312Z,14.83
2023-02-09T12:32:25.435Z,15.93
2023-02-09T12:34:55.342Z,15.00
2023-02-09T12:37:29.993Z,14.90
2023-02-09T12:40:12.385Z,15.27
2023-02-09T12:42:54.992Z,14.40
2023-02-09T12:45:38.940Z,14.27
2023-02-09T12:48:08.958Z,15.87
2023-02-09T12:50:53.322Z,15.67
2023-02-09T12:53:23.509Z,14.70
2023-02-09T12:56:01.267Z,15.57
2023-02-09T12:58:38.960Z,13.80
2023-02-09T13:01:06.922Z,13.37
2023-02-09T13:03:39.966Z,14.13
2023-02-09T13:06:16.451Z,13.50
2023-02-09T13:08:48.304Z,14.30
2023-02-09T13:11:19.160Z,14.17
2023-02-09T13:13:49.601Z,14.20
2023-02-09T13:16:25.839Z,13.87
2023-02-09T13:18:53.104Z,12.83
2023-02-09T13:21:27.227Z,11.67
2023-02-09T13:24:29.983Z,13.87
2023-02-09T13:26:58.160Z,11.50
2023-02-09T13:29:26.904Z,11.87
2023-02-09T13:32:18.124Z,11.97
2023-02-09T13:34:49.650Z,12.53
2023-02-09T13:37:16.798Z,11.90
2023-02-09T13:39:44.433Z,10.00
2023-02-09T13:42:22.496Z,11.37
2023-02-09T13:44:57.254Z,12.50
2023-02-09T13:47:25.271Z,13.13
2023-02-09T13:49:56.386Z,12.83
2023-02-09T13:52:26.671Z,12.53
2023-02-09T13:54:54.791Z,13.27
2023-02-09T13:57:38.113Z,12.10
2023-02-09T14:00:14.766Z,13.27
2023-02-09T14:02:44.186Z,12.67
2023-02-09T14:05:11.475Z,13.30
2023-02-09T14:07:38.965Z,13.87
2023-02-09T14:10:17.083Z,12.67
2023-02-09T14:12:56.081Z,14.27
2023-02-09T14:16:02.649Z,14.40
2023-02-09T14:18:35.158Z,15.03
2023-02-09T14:21:05.835Z,13.20
2023-02-09T14:23:35.103Z,10.67
2023-02-09T14:26:19.696Z,11.03
2023-02-09T14:28:52.034Z,11.93
2023-02-09T14:31:20.649Z,11.47
2023-02-09T14:33:49.416Z,11.83
2023-02-09T14:36:24.067Z,11.07
2023-02-09T14:38:54.688Z,9.57
2023-02-09T14:41:32.532Z,10.50
2023-02-09T14:44:20.512Z,11.17
2023-02-09T14:46:58.272Z,11.97
2023-02-09T14:49:25.878Z,11.70
2023-02-09T14:52:04.078Z,11.70
2023-02-09T14:54:33.164Z,12.97
2023-02-09T14:57:01.207Z,12.63
2023-02-09T14:59:28.659Z,12.50
2023-02-09T15:01:56.334Z,13.23
2023-02-09T15:04:24.251Z,12.83
2023-02-09T15:06:57.586Z,14.20
2023-02-09T15:09:32.391Z,13.27
2023-02-09T15:12:06.150Z,14.77
2023-02-09T15:14:46.756Z,15.63
2023-02-09T15:17:25.550Z,16.83
2023-02-09T15:19:52.941Z,20.10
2023-02-09T15:22:20.701Z,20.00
2023-02-09T15:24:49.242Z,21.30
2023-02-09T15:27:29.840Z,22.33
2023-02-09T15:29:59.740Z,21.03
2023-02-09T15:32:28.205Z,21.17
2023-02-09T15:34:55.560Z,21.13
2023-02-09T15:37:25.129Z,21.67
2023-02-09T15:39:54.518Z,23.40
2023-02-09T15:42:40.373Z,27.67
2023-02-09T15:45:46.340Z,24.33
2023-02-09T15:48:14.673Z,24.37
2023-02-09T15:50:43.534Z,28.37
2023-02-09T15:53:15.561Z,27.73
2023-02-09T15:55:43.847Z,27.40
2023-02-09T15:58:35.469Z,29.80
2023-02-09T16:01:02.839Z,31.23
2023-02-09T16:03:31.827Z,27.30
2023-02-09T16:06:08.251Z,27.73
2023-02-09T16:08:37.440Z,27.47
2023-02-09T16:11:09.524Z,28.90
2023-02-09T16:13:37.506Z,32.90
2023-02-09T16:16:16.639Z,32.77
2023-02-09T16:18:44.927Z,37.03
2023-02-09T16:21:32.573Z,40.93
2023-02-09T16:24:01.758Z,40.20
2023-02-09T16:26:30.252Z,44.23
2023-02-09T16:28:58.084Z,50.37
2023-02-09T16:31:25.789Z,50.40
2023-02-09T16:33:53.248Z,63.77
2023-02-09T16:36:21.771Z,73.63
2023-02-09T16:38:49.206Z,72.70
2023-02-09T16:41:37.187Z,66.67
2023-02-09T16:44:29.279Z,43.43
2023-02-09T16:46:58.447Z,32.23
2023-02-09T16:49:25.708Z,31.43
2023-02-09T16:51:53.476Z,31.27
2023-02-09T16:54:24.513Z,27.57
2023-02-09T16:56:54.591Z,23.63
2023-02-09T16:59:22.134Z,20.20
2023-02-09T17:01:49.862Z,19.97
2023-02-09T17:04:17.132Z,18.87
2023-02-09T17:06:45.243Z,18.57
2023-02-09T17:09:15.979Z,26.00
2023-02-09T17:11:43.693Z,23.60
2023-02-09T17:14:12.417Z,19.20
2023-02-09T17:16:43.376Z,19.73
2023-02-09T17:19:15.391Z,18.73
2023-02-09T17:21:43.084Z,18.80
2023-02-09T17:24:13.420Z,16.20
2023-02-09T17:26:41.061Z,15.40
2023-02-09T17:29:08.815Z,14.90
2023-02-09T17:31:51.831Z,13.67
2023-02-09T17:34:20.667Z,14.10
2023-02-09T17:36:47.986Z,14.53
2023-02-09T17:39:17.063Z,14.87
2023-02-09T17:41:45.451Z,22.67
2023-02-09T17:44:39.145Z,19.50
2023-02-09T17:47:14.064Z,15.63
2023-02-09T17:49:41.246Z,13.33
2023-02-09T17:52:12.976Z,14.67
2023-02-09T17:54:40.152Z,13.97
2023-02-09T17:57:07.392Z,13.30
2023-02-09T17:59:34.705Z,13.77
2023-02-09T18:02:02.141Z,12.63
2023-02-09T18:04:31.191Z,12.43
2023-02-09T18:06:58.494Z,13.40
2023-02-09T18:09:26.196Z,13.87
2023-02-09T18:11:53.665Z,13.00
2023-02-09T18:14:22.304Z,13.53
2023-02-09T18:16:49.863Z,14.73
2023-02-09T18:19:17.357Z,15.80
2023-02-09T18:22:03.023Z,15.20
2023-02-09T18:24:31.779Z,15.53
2023-02-09T18:26:59.391Z,15.23
2023-02-09T18:29:29.541Z,16.37
2023-02-09T18:31:58.456Z,15.67
2023-02-09T18:34:26.514Z,16.03
2023-02-09T18:36:53.797Z,18.60
2023-02-09T18:39:21.102Z,16.87
2023-02-09T18:41:54.335Z,16.13
2023-02-09T18:44:24.479Z,15.30
2023-02-09T18:46:51.762Z,14.73
2023-02-09T18:49:18.932Z,16.83
2023-02-09T18:51:46.100Z,15.50
2023-02-09T18:54:13.596Z,16.20
2023-02-09T18:56:41.197Z,15.97
2023-02-09T18:59:08.884Z,16.27
2023-02-09T19:01:36.880Z,15.30
2023-02-09T19:04:04.650Z,17.27
2023-02-09T19:06:33.539Z,16.60
2023-02-09T19:09:00.790Z,17.10
2023-02-09T19:11:27.990Z,19.73
2023-02-09T19:14:13.690Z,19.30
2023-02-09T19:16:41.274Z,18.27
2023-02-09T19:19:09.478Z,19.80
2023-02-09T19:21:36.862Z,18.17
2023-02-09T19:24:04.556Z,16.43
2023-02-09T19:26:31.858Z,15.50
2023-02-09T19:28:59.154Z,17.90
2023-02-09T19:31:26.403Z,18.20
2023-02-09T19:33:57.570Z,18.97
2023-02-09T19:36:30.537Z,18.87
2023-02-09T19:38:57.801Z,19.20
2023-02-09T19:41:25.753Z,19.40
2023-02-09T19:43:59.327Z,16.03
2023-02-09T19:46:27.015Z,15.93
2023-02-09T19:48:54.550Z,16.93
2023-02-09T19:51:22.188Z,15.83
2023-02-09T19:53:49.552Z,16.33
2023-02-09T19:56:19.335Z,16.10
2023-02-09T19:58:46.629Z,15.03
2023-02-09T20:01:14.075Z,17.10
2023-02-09T20:03:41.388Z,15.23
2023-02-09T20:06:09.501Z,14.93
2023-02-09T20:08:37.366Z,16.27
2023-02-09T20:11:08.377Z,14.43
2023-02-09T20:13:35.956Z,15.37
2023-02-09T20:16:07.445Z,14.47
2023-02-09T20:18:34.764Z,14.50
2023-02-09T20:21:02.505Z,14.07
2023-02-09T20:23:29.698Z,13.83
2023-02-09T20:25:56.894Z,15.10
2023-02-09T20:28:24.444Z,14.37
2023-02-09T20:30:51.747Z,15.33
2023-02-09T20:33:19.214Z,14.87
2023-02-09T20:35:46.714Z,12.27
2023-02-09T20:38:14.170Z,12.63
2023-02-09T20:40:42.865Z,16.97
2023-02-09T20:43:29.930Z,15.27
2023-02-09T20:46:15.995Z,14.70
2023-02-09T20:48:43.303Z,14.10
2023-02-09T20:51:10.495Z,14.30
2023-02-09T20:53:37.766Z,13.23
2023-02-09T20:56:05.196Z,14.40
2023-02-09T20:58:32.662Z,13.80
2023-02-09T21:00:59.986Z,13.30
2023-02-09T21:03:27.360Z,14.27
2023-02-09T21:05:54.895Z,13.20
2023-02-09T21:08:22.917Z,14.83
2023-02-09T21:10:57.773Z,14.63
2023-02-09T21:13:25.598Z,14.77
2023-02-09T21:15:52.915Z,13.13
2023-02-09T21:18:21.835Z,13.57
2023-02-09T21:20:49.538Z,15.57
2023-02-09T21:23:17.299Z,15.97
2023-02-09T21:25:45.056Z,14.60
2023-02-09T21:28:13.142Z,14.93
2023-02-09T21:30:44.169Z,15.03
2023-02-09T21:33:11.481Z,17.47
2023-02-09T21:35:41.751Z,15.27
2023-02-09T21:38:09.031Z,18.33
2023-02-09T21:40:36.275Z,17.40
2023-02-09T21:43:03.650Z,14.27
2023-02-09T21:45:31.002Z,14.03
2023-02-09T21:47:59.819Z,16.83
2023-02-09T21:50:27.268Z,14.53
2023-02-09T21:52:55.194Z,14.87
2023-02-09T21:55:22.542Z,16.83
2023-02-09T21:57:50.226Z,15.23
2023-02-09T22:00:17.516Z,14.43
2023-02-09T22:02:45.548Z,14.13
2023-02-09T22:05:13.017Z,15.00
2023-02-09T22:07:40.835Z,14.90
2023-02-09T22:10:08.366Z,15.00
2023-02-09T22:12:36.443Z,14.03
2023-02-09T22:15:03.747Z,15.90
2023-02-09T22:17:30.979Z,13.30
2023-02-09T22:19:58.232Z,14.80
2023-02-09T22:22:25.437Z,17.80
2023-02-09T22:24:52.643Z,15.00
2023-02-09T22:27:20.365Z,16.80
2023-02-09T22:29:47.854Z,15.43
2023-02-09T22:32:15.327Z,15.10
2023-02-09T22:34:42.591Z,14.17
2023-02-09T22:37:10.096Z,14.37
2023-02-09T22:39:37.605Z,14.40
2023-02-09T22:42:08.570Z,14.33
2023-02-09T22:44:36.034Z,13.37
2023-02-09T22:47:03.898Z,13.10
2023-02-09T22:49:31.514Z,14.43
2023-02-09T22:51:58.939Z,15.70
2023-02-09T22:54:29.538Z,12.70
2023-02-09T22:56:56.771Z,14.60
2023-02-09T22:59:24.119Z,14.70
2023-02-09T23:01:51.553Z,13.40
2023-02-09T23:04:18.784Z,13.93
2023-02-09T23:06:46.187Z,13.33
2023-02-09T23:09:14.207Z,14.83
2023-02-09T23:11:41.784Z,13.77
2023-02-09T23:14:10.821Z,13.20
2023-02-09T23:16:39.453Z,13.63
2023-02-09T23:19:07.926Z,12.97
2023-02-09T23:21:39.445Z,12.70
2023-02-09T23:24:06.892Z,13.63
2023-02-09T23:26:34.657Z,13.03
2023-02-09T23:29:03.170Z,13.17
2023-02-09T23:31:31.109Z,13.63
2023-02-09T23:33:58.605Z,13.30
2023-02-09T23:36:27.044Z,13.60
2023-02-09T23:38:55.311Z,12.00
2023-02-09T23:41:23.212Z,13.20
2023-02-09T23:43:50.763Z,12.03
2023-02-09T23:46:22.606Z,12.57
2023-02-09T23:48:50.436Z,12.93
2023-02-09T23:51:19.999Z,13.47
2023-02-09T23:53:48.356Z,13.77
2023-02-09T23:56:16.919Z,13.60
2023-02-09T23:58:45.480Z,12.40
